Madeline — WDF2406 — position and weather

sailwx.info

Track history (hours):
 
Tides and Currents Weather Stations Pressure Air Temp Water Temp Dewpoint Dewpoint Depression Visibility Wind Speed Wind Dir Waves Ship Positions

Madeline

Owner: Enterprise Marine Services, LLC, San Antonio, TX. More information available from US FCC via Universal Licensing System and Coast Guard Vessel Documentation Center.

Last reported at 2017-Nov-17 10:47 UTC. Time now 2017-Dec-12 17:58 UTC.
Position N 32°40' W 091°08'.
Warning: this ship's position is 25 days out of date.

Length 24 m; draft 3 m.

Type: Ship (hazmat cat B). MMSI: 367350460.

Date/timePositionNaut miles runAvg speedWind from/ knotsBaromVisibWave heightAir tempDewpointWater temp
2017-Nov-17 10:47N 32°40' W 091°08'4 5.2
2017-Nov-17 10:05N 32°37' W 091°09'0 2.3
2017-Nov-17 09:59N 32°36' W 091°09'3 5.5
2017-Nov-17 09:30N 32°34' W 091°07'4 5.1
2017-Nov-17 08:38N 32°30' W 091°07'1 6.5
2017-Nov-17 08:29N 32°29' W 091°07'3 6.3
2017-Nov-17 08:00N 32°27' W 091°05'3 6.5
2017-Nov-17 07:30N 32°26' W 091°01'2 5.0
2017-Nov-17 07:00N 32°23' W 090°60'2 4.4
2017-Nov-17 06:30N 32°21' W 090°60'3 6.0
2017-Nov-17 06:00N 32°21' W 090°56'2 4.7
2017-Nov-17 05:30N 32°19' W 090°54'3 5.7
2017-Nov-17 05:00N 32°17' W 090°56'3 5.8
2017-Nov-17 04:30N 32°15' W 090°59'3 5.9
2017-Nov-17 04:00N 32°12' W 090°59'3 5.5
2017-Nov-17 03:30N 32°10' W 091°00'3 5.1
2017-Nov-17 03:00N 32°07' W 091°02'3 5.0
2017-Nov-17 02:23N 32°08' W 091°05'2 4.3
2017-Nov-17 02:00N 32°07' W 091°06'4 6.2
2017-Nov-17 01:22N 32°04' W 091°03'  
2017-Nov-08 21:27N 32°06' W 091°06'2 5.2
2017-Nov-08 21:00N 32°08' W 091°04'4 6.9
2017-Nov-08 20:29N 32°09' W 091°00'3 6.0
2017-Nov-08 20:01N 32°12' W 090°59'0 0.0
2017-Nov-08 18:58N 32°12' W 090°59'0 0.0
2017-Nov-08 18:28N 32°12' W 090°59'2 5.2
2017-Nov-08 18:01N 32°14' W 090°59'611.3
2017-Nov-08 17:31N 32°19' W 090°54'4 7.4
2017-Nov-08 17:00N 32°21' W 090°58'4 8.3
2017-Nov-08 16:31N 32°25' W 090°60'510.6
2017-Nov-08 16:01N 32°27' W 091°05'8 9.8
2017-Nov-08 15:15N 32°34' W 091°07'  
Track history (hours):
 
Tides and Currents Weather Stations Pressure Air Temp Water Temp Dewpoint Dewpoint Depression Visibility Wind Speed Wind Dir Waves Ship Positions

Madeline

Owner: Enterprise Marine Services, LLC, San Antonio, TX. More information available from US FCC via Universal Licensing System and Coast Guard Vessel Documentation Center.

Last reported at 2017-Nov-17 10:47 UTC. Time now 2017-Dec-12 17:58 UTC.
Position N 32°40' W 091°08'.
Warning: this ship's position is 25 days out of date.

Length 24 m; draft 3 m.

Type: Ship (hazmat cat B). MMSI: 367350460.

Date/timePositionNaut miles runAvg speedWind from/ knotsBaromVisibWave heightAir tempDewpointWater temp
2017-Nov-17 10:47N 32°40' W 091°08'4 5.2
2017-Nov-17 10:05N 32°37' W 091°09'0 2.3
2017-Nov-17 09:59N 32°36' W 091°09'3 5.5
2017-Nov-17 09:30N 32°34' W 091°07'4 5.1
2017-Nov-17 08:38N 32°30' W 091°07'1 6.5
2017-Nov-17 08:29N 32°29' W 091°07'3 6.3
2017-Nov-17 08:00N 32°27' W 091°05'3 6.5
2017-Nov-17 07:30N 32°26' W 091°01'2 5.0
2017-Nov-17 07:00N 32°23' W 090°60'2 4.4
2017-Nov-17 06:30N 32°21' W 090°60'3 6.0
2017-Nov-17 06:00N 32°21' W 090°56'2 4.7
2017-Nov-17 05:30N 32°19' W 090°54'3 5.7
2017-Nov-17 05:00N 32°17' W 090°56'3 5.8
2017-Nov-17 04:30N 32°15' W 090°59'3 5.9
2017-Nov-17 04:00N 32°12' W 090°59'3 5.5
2017-Nov-17 03:30N 32°10' W 091°00'3 5.1
2017-Nov-17 03:00N 32°07' W 091°02'3 5.0
2017-Nov-17 02:23N 32°08' W 091°05'2 4.3
2017-Nov-17 02:00N 32°07' W 091°06'4 6.2
2017-Nov-17 01:22N 32°04' W 091°03'  
2017-Nov-08 21:27N 32°06' W 091°06'2 5.2
2017-Nov-08 21:00N 32°08' W 091°04'4 6.9
2017-Nov-08 20:29N 32°09' W 091°00'3 6.0
2017-Nov-08 20:01N 32°12' W 090°59'0 0.0
2017-Nov-08 18:58N 32°12' W 090°59'0 0.0
2017-Nov-08 18:28N 32°12' W 090°59'2 5.2
2017-Nov-08 18:01N 32°14' W 090°59'611.3
2017-Nov-08 17:31N 32°19' W 090°54'4 7.4
2017-Nov-08 17:00N 32°21' W 090°58'4 8.3
2017-Nov-08 16:31N 32°25' W 090°60'510.6
2017-Nov-08 16:01N 32°27' W 091°05'8 9.8
2017-Nov-08 15:15N 32°34' W 091°07'  

Dump ship's entire track history